Terminal Aerodrome Forecast
Issued by NWS

Home | Current Version | Previous Version | Text Only | Print | Product List | Glossary On
Versions: 1 2 3 4 5 6 7 8 9 10 11 12 13 14 15 16 17 18
885
FTUS46 KPDT 221140
TAFYKM
TAF
KYKM 221140Z 2212/2312 25004KT P6SM FEW060
     FM221400 VRB04KT P6SM SCT060 BKN090
     FM221900 VRB05KT P6SM SCT060
     FM230100 25004KT P6SM FEW070=

USA.gov is the U.S. government's official web portal to all federal, state and local government web resources and services.